Time;durP1;ratioP1;P1;durP2;ratioP2;P2;SDS_P1;SDS_P2;PMS_P1;PMS_P2;Temp;Humidity;BMP_temperature;BMP_pressure;BME280_temperature;BME280_humidity;BME280_pressure;Samples;Min_cycle;Max_cycle;Signal;HPM_P1;HPM_P2
2024/01/06 00:00:40;;;;;;;14.33;8.80;;;;;;;;;;5016054;28;20702;-73
2024/01/06 00:03:07;;;;;;;11.07;8.37;;;;;;;;;;5022357;28;20646;-72
2024/01/06 00:05:35;;;;;;;13.37;8.60;;;;;;;;;;5022759;28;20270;-71
2024/01/06 00:08:02;;;;;;;11.37;9.00;;;;;;;;;;5020424;28;20253;-71
2024/01/06 00:10:30;;;;;;;11.07;8.80;;;;;;;;;;5002410;28;20219;-71
2024/01/06 00:12:57;;;;;;;9.07;8.17;;;;;;;;;;5017866;28;20223;-72
2024/01/06 00:15:24;;;;;;;12.27;8.10;;;;;;;;;;5003976;28;20266;-72
2024/01/06 00:17:52;;;;;;;13.60;8.90;;;;;;;;;;5007910;28;20705;-70
2024/01/06 00:20:19;;;;;;;9.83;8.60;;;;;;;;;;5021350;28;20210;-73
2024/01/06 00:22:47;;;;;;;13.87;9.13;;;;;;;;;;5004587;28;20218;-70
2024/01/06 00:25:15;;;;;;;12.57;8.23;;;;;;;;;;5021131;28;20611;-70
2024/01/06 00:27:43;;;;;;;12.83;8.33;;;;;;;;;;5018077;28;20214;-70
2024/01/06 00:30:11;;;;;;;12.20;7.37;;;;;;;;;;5013627;28;20237;-73
2024/01/06 00:32:39;;;;;;;9.93;7.13;;;;;;;;;;5017880;28;20277;-71
2024/01/06 00:35:06;;;;;;;10.83;7.67;;;;;;;;;;5019395;28;20554;-72
2024/01/06 00:37:33;;;;;;;10.10;7.67;;;;;;;;;;5019586;28;20929;-73
2024/01/06 00:40:01;;;;;;;10.10;7.73;;;;;;;;;;5015653;28;20221;-69
2024/01/06 00:42:30;;;;;;;11.27;8.33;;;;;;;;;;5021378;28;20288;-70
2024/01/06 00:44:58;;;;;;;11.87;8.60;;;;;;;;;;5013064;28;20624;-71
2024/01/06 00:47:26;;;;;;;12.73;8.37;;;;;;;;;;5021320;28;20624;-74
2024/01/06 00:49:53;;;;;;;8.70;7.80;;;;;;;;;;5021916;28;20263;-72
2024/01/06 00:52:21;;;;;;;10.60;7.87;;;;;;;;;;5006882;28;20278;-71
2024/01/06 00:54:49;;;;;;;12.83;7.43;;;;;;;;;;5020598;28;20803;-72
2024/01/06 00:57:16;;;;;;;9.03;7.40;;;;;;;;;;5006108;28;20299;-72
2024/01/06 00:59:43;;;;;;;10.70;7.47;;;;;;;;;;5021384;28;20253;-72
2024/01/06 01:02:11;;;;;;;10.67;8.53;;;;;;;;;;5024177;28;20561;-70
2024/01/06 01:04:38;;;;;;;14.10;8.17;;;;;;;;;;5035397;28;20681;-70
2024/01/06 01:07:05;;;;;;;8.90;7.03;;;;;;;;;;5034760;28;20214;-72
2024/01/06 01:09:33;;;;;;;10.53;6.90;;;;;;;;;;5034521;28;20671;-70
2024/01/06 01:12:00;;;;;;;10.03;6.90;;;;;;;;;;5016594;28;20238;-69
2024/01/06 01:14:28;;;;;;;9.33;6.67;;;;;;;;;;5016658;28;20737;-70
2024/01/06 01:16:56;;;;;;;8.70;6.73;;;;;;;;;;5034001;28;20209;-70
2024/01/06 01:19:24;;;;;;;7.10;6.40;;;;;;;;;;5033653;28;20246;-69
2024/01/06 01:21:55;;;;;;;12.13;6.70;;;;;;;;;;5033356;28;20195;-69
2024/01/06 01:24:23;;;;;;;6.97;6.10;;;;;;;;;;5034041;28;20187;-71
2024/01/06 01:26:51;;;;;;;7.20;5.57;;;;;;;;;;5016337;28;20726;-69
2024/01/06 01:29:20;;;;;;;6.70;5.40;;;;;;;;;;5033513;28;20218;-70
2024/01/06 01:31:47;;;;;;;8.20;6.10;;;;;;;;;;5016700;28;20223;-68
2024/01/06 01:34:16;;;;;;;8.17;6.20;;;;;;;;;;5033202;28;20227;-69
2024/01/06 01:36:44;;;;;;;10.13;6.40;;;;;;;;;;5034487;28;20214;-72
2024/01/06 01:39:12;;;;;;;8.27;6.80;;;;;;;;;;5034061;28;20223;-72
2024/01/06 01:41:40;;;;;;;7.77;6.20;;;;;;;;;;5034113;28;20207;-72
2024/01/06 01:44:08;;;;;;;9.47;6.23;;;;;;;;;;5033973;28;20237;-70
2024/01/06 01:46:35;;;;;;;9.27;6.83;;;;;;;;;;5033731;28;20664;-69
2024/01/06 01:49:03;;;;;;;10.90;7.00;;;;;;;;;;5034138;28;20261;-73
2024/01/06 01:51:32;;;;;;;10.13;6.43;;;;;;;;;;5033527;28;20190;-71
2024/01/06 01:54:00;;;;;;;10.73;7.50;;;;;;;;;;5033398;28;20223;-70
2024/01/06 01:56:27;;;;;;;8.90;6.60;;;;;;;;;;5016068;28;20567;-70
2024/01/06 01:58:55;;;;;;;9.67;6.73;;;;;;;;;;5033354;28;20231;-71
2024/01/06 02:01:22;;;;;;;9.70;7.20;;;;;;;;;;5033568;28;20214;-71
2024/01/06 02:03:50;;;;;;;10.60;7.40;;;;;;;;;;5015671;28;20637;-71
2024/01/06 02:06:17;;;;;;;11.80;8.83;;;;;;;;;;5033243;28;20203;-73
2024/01/06 02:08:44;;;;;;;9.50;7.83;;;;;;;;;;5033217;28;20679;-71
2024/01/06 02:11:12;;;;;;;19.00;10.43;;;;;;;;;;5033101;28;20257;-71
2024/01/06 02:13:39;;;;;;;8.37;4.83;;;;;;;;;;5033014;28;20624;-72
2024/01/06 02:16:06;;;;;;;7.30;4.10;;;;;;;;;;5033340;28;20207;-71
2024/01/06 02:18:34;;;;;;;6.63;5.10;;;;;;;;;;5033268;28;20678;-71
2024/01/06 02:21:03;;;;;;;15.90;13.30;;;;;;;;;;5032597;28;20702;-71
2024/01/06 02:23:30;;;;;;;13.63;12.23;;;;;;;;;;5033141;28;20230;-72
2024/01/06 02:25:57;;;;;;;9.77;8.80;;;;;;;;;;5033578;28;20692;-71
2024/01/06 02:28:25;;;;;;;12.23;11.13;;;;;;;;;;5015642;28;20218;-69
2024/01/06 02:30:52;;;;;;;5.70;4.40;;;;;;;;;;5033355;28;20207;-71
2024/01/06 02:33:20;;;;;;;7.97;2.90;;;;;;;;;;5032859;28;20233;-71
2024/01/06 02:35:47;;;;;;;4.60;3.00;;;;;;;;;;5033792;28;20713;-72
2024/01/06 02:38:14;;;;;;;4.43;2.80;;;;;;;;;;5015488;28;20868;-71
2024/01/06 02:40:42;;;;;;;5.83;3.27;;;;;;;;;;5032746;28;20203;-71
2024/01/06 02:43:10;;;;;;;3.30;3.00;;;;;;;;;;5014901;28;20315;-70
2024/01/06 02:45:37;;;;;;;7.70;2.97;;;;;;;;;;5032325;28;20203;-71
2024/01/06 02:48:05;;;;;;;5.33;3.30;;;;;;;;;;5032861;28;20238;-71
2024/01/06 02:50:32;;;;;;;6.77;6.20;;;;;;;;;;5033018;28;20246;-72
2024/01/06 02:52:59;;;;;;;6.93;6.33;;;;;;;;;;5032831;28;20219;-71
2024/01/06 02:55:27;;;;;;;3.83;2.70;;;;;;;;;;5032531;28;20195;-71
2024/01/06 02:57:54;;;;;;;6.50;3.33;;;;;;;;;;5032471;28;20547;-70
2024/01/06 03:00:21;;;;;;;4.70;2.50;;;;;;;;;;5032327;28;20625;-71
2024/01/06 03:02:49;;;;;;;3.73;2.33;;;;;;;;;;5032276;28;20265;-70
2024/01/06 03:05:16;;;;;;;5.20;2.30;;;;;;;;;;5032049;28;20215;-72
2024/01/06 03:07:44;;;;;;;3.33;2.40;;;;;;;;;;5031869;28;20210;-71
2024/01/06 03:10:11;;;;;;;4.43;3.07;;;;;;;;;;5014800;28;20203;-70
2024/01/06 03:12:39;;;;;;;19.43;10.03;;;;;;;;;;5032227;28;20598;-71
2024/01/06 03:15:06;;;;;;;22.83;12.73;;;;;;;;;;5032011;28;20289;-71
2024/01/06 03:17:34;;;;;;;29.20;14.87;;;;;;;;;;5031602;28;20206;-72
2024/01/06 03:20:01;;;;;;;13.83;7.67;;;;;;;;;;5032351;28;20702;-72
2024/01/06 03:22:28;;;;;;;7.90;4.50;;;;;;;;;;5031439;28;20238;-72
2024/01/06 03:24:56;;;;;;;5.40;3.23;;;;;;;;;;5031816;28;20210;-70
2024/01/06 03:27:23;;;;;;;4.47;2.90;;;;;;;;;;5032311;28;20273;-71
2024/01/06 03:29:50;;;;;;;5.93;2.93;;;;;;;;;;5031527;28;20701;-72
2024/01/06 03:32:18;;;;;;;4.87;2.93;;;;;;;;;;5031599;28;20237;-70
2024/01/06 03:34:45;;;;;;;5.40;2.80;;;;;;;;;;5031455;28;20203;-69
2024/01/06 03:37:13;;;;;;;4.30;2.47;;;;;;;;;;5031497;28;20298;-70
2024/01/06 03:39:40;;;;;;;4.03;2.57;;;;;;;;;;5031525;28;20226;-71
2024/01/06 03:42:07;;;;;;;5.83;3.00;;;;;;;;;;5031141;28;20252;-70
2024/01/06 03:44:35;;;;;;;6.70;3.10;;;;;;;;;;5013730;28;20257;-70
2024/01/06 03:47:02;;;;;;;8.23;2.73;;;;;;;;;;5031729;28;20202;-69
2024/01/06 03:49:29;;;;;;;7.67;4.13;;;;;;;;;;5031320;28;20299;-70
2024/01/06 03:51:57;;;;;;;5.53;3.70;;;;;;;;;;5014349;28;20575;-72
2024/01/06 03:54:24;;;;;;;5.77;3.93;;;;;;;;;;5031294;28;20703;-71
2024/01/06 03:56:51;;;;;;;9.73;5.27;;;;;;;;;;5031334;28;20528;-71
2024/01/06 03:59:19;;;;;;;3.87;3.03;;;;;;;;;;5031068;28;20230;-72
2024/01/06 04:01:46;;;;;;;4.80;2.63;;;;;;;;;;5013252;28;20539;-71
2024/01/06 04:04:14;;;;;;;5.97;3.17;;;;;;;;;;5031080;28;20276;-71
2024/01/06 04:06:41;;;;;;;6.97;3.40;;;;;;;;;;5030977;28;20207;-70
2024/01/06 04:09:09;;;;;;;12.07;5.80;;;;;;;;;;5031003;28;20257;-70
2024/01/06 04:11:36;;;;;;;19.93;9.03;;;;;;;;;;5013489;28;20294;-71
2024/01/06 04:14:04;;;;;;;17.10;7.70;;;;;;;;;;5031274;28;20911;-71
2024/01/06 04:16:31;;;;;;;13.07;6.47;;;;;;;;;;5030738;28;20243;-72
2024/01/06 04:18:58;;;;;;;7.30;3.77;;;;;;;;;;5014263;28;20250;-72
2024/01/06 04:21:26;;;;;;;6.47;3.33;;;;;;;;;;5031449;28;20610;-71
2024/01/06 04:23:55;;;;;;;5.53;3.00;;;;;;;;;;5030779;28;20226;-72
2024/01/06 04:26:23;;;;;;;4.57;3.20;;;;;;;;;;5031192;28;20221;-69
2024/01/06 04:28:50;;;;;;;3.63;2.90;;;;;;;;;;5030541;28;20226;-71
2024/01/06 04:31:18;;;;;;;5.97;4.37;;;;;;;;;;5031241;28;20206;-69
2024/01/06 04:33:45;;;;;;;10.27;5.83;;;;;;;;;;5029687;28;20413;-71
2024/01/06 04:36:13;;;;;;;6.27;3.30;;;;;;;;;;5050816;28;20233;-71
2024/01/06 04:38:41;;;;;;;7.67;3.10;;;;;;;;;;5050937;28;20234;-71
2024/01/06 04:41:09;;;;;;;4.07;2.57;;;;;;;;;;5050663;28;20217;-71
2024/01/06 04:43:36;;;;;;;5.33;2.70;;;;;;;;;;5050547;28;20631;-68
2024/01/06 04:46:04;;;;;;;5.73;2.87;;;;;;;;;;5032658;28;20209;-69
2024/01/06 04:48:31;;;;;;;5.00;2.37;;;;;;;;;;5050171;28;20202;-70
2024/01/06 04:50:59;;;;;;;5.03;2.60;;;;;;;;;;5032791;28;20210;-71
2024/01/06 04:53:26;;;;;;;8.10;4.93;;;;;;;;;;5032775;28;20589;-70
2024/01/06 04:55:53;;;;;;;5.63;2.80;;;;;;;;;;5050069;28;20250;-71
2024/01/06 04:58:21;;;;;;;12.10;6.20;;;;;;;;;;5050041;28;20210;-70
2024/01/06 05:00:50;;;;;;;11.03;6.23;;;;;;;;;;5050108;28;20229;-70
2024/01/06 05:03:18;;;;;;;5.40;2.70;;;;;;;;;;5032542;28;20715;-71
2024/01/06 05:05:45;;;;;;;10.17;5.57;;;;;;;;;;5050514;28;20221;-70
2024/01/06 05:08:14;;;;;;;10.50;6.90;;;;;;;;;;5032297;28;20208;-71
2024/01/06 05:10:42;;;;;;;6.33;3.27;;;;;;;;;;5050514;28;20260;-69
2024/01/06 05:13:10;;;;;;;3.63;2.83;;;;;;;;;;5032460;28;20222;-69
2024/01/06 05:15:37;;;;;;;6.03;3.90;;;;;;;;;;5050669;28;20635;-70
2024/01/06 05:18:04;;;;;;;17.27;12.67;;;;;;;;;;5050467;28;20602;-72
2024/01/06 05:20:32;;;;;;;16.20;14.90;;;;;;;;;;5049619;28;20250;-71
2024/01/06 05:22:59;;;;;;;4.63;4.23;;;;;;;;;;5049856;28;20221;-71
2024/01/06 05:25:27;;;;;;;3.37;2.30;;;;;;;;;;5049918;28;20271;-70
2024/01/06 05:27:54;;;;;;;3.30;2.20;;;;;;;;;;5049649;28;20670;-72
2024/01/06 05:30:21;;;;;;;4.87;2.80;;;;;;;;;;5049472;28;20222;-69
2024/01/06 05:32:49;;;;;;;9.13;2.83;;;;;;;;;;5050138;28;20261;-70
2024/01/06 05:35:16;;;;;;;3.93;2.17;;;;;;;;;;5050110;28;20332;-70
2024/01/06 05:37:44;;;;;;;3.10;2.13;;;;;;;;;;5050303;28;20206;-70
2024/01/06 05:40:11;;;;;;;6.20;2.40;;;;;;;;;;5050447;28;20453;-69
2024/01/06 05:42:39;;;;;;;4.60;2.53;;;;;;;;;;5049763;28;20226;-71
2024/01/06 05:45:06;;;;;;;5.90;2.13;;;;;;;;;;5052257;28;20701;-68
2024/01/06 05:47:34;;;;;;;4.23;1.93;;;;;;;;;;5054031;28;20615;-70
2024/01/06 05:50:01;;;;;;;5.70;2.00;;;;;;;;;;5053858;28;20213;-72
2024/01/06 05:52:29;;;;;;;3.80;1.77;;;;;;;;;;5053493;28;20706;-71
2024/01/06 05:54:56;;;;;;;2.57;2.10;;;;;;;;;;5053973;28;20662;-70
2024/01/06 05:57:25;;;;;;;5.27;1.90;;;;;;;;;;5036231;28;20210;-69
2024/01/06 05:59:52;;;;;;;4.07;1.90;;;;;;;;;;5036173;28;20256;-69
2024/01/06 06:02:19;;;;;;;5.20;1.87;;;;;;;;;;5053850;28;20726;-69
2024/01/06 06:04:47;;;;;;;5.20;2.00;;;;;;;;;;5053851;28;20279;-70
2024/01/06 06:07:14;;;;;;;3.47;1.80;;;;;;;;;;5053614;28;20662;-72
2024/01/06 06:09:41;;;;;;;5.83;2.00;;;;;;;;;;5053646;28;20229;-71
2024/01/06 06:12:09;;;;;;;6.63;1.90;;;;;;;;;;5053313;28;20289;-69
2024/01/06 06:14:36;;;;;;;3.93;2.00;;;;;;;;;;5053502;28;20264;-71
2024/01/06 06:17:03;;;;;;;4.80;1.93;;;;;;;;;;5053788;28;20206;-69
2024/01/06 06:19:31;;;;;;;5.40;1.93;;;;;;;;;;5053610;28;20226;-68
2024/01/06 06:21:59;;;;;;;5.70;2.30;;;;;;;;;;5019855;28;20199;-73
2024/01/06 06:24:26;;;;;;;5.73;1.93;;;;;;;;;;5005733;28;20195;-71
2024/01/06 06:26:53;;;;;;;5.73;2.20;;;;;;;;;;5023241;28;20199;-72
2024/01/06 06:29:21;;;;;;;3.00;2.03;;;;;;;;;;5020589;28;20272;-71
2024/01/06 06:31:48;;;;;;;4.97;2.00;;;;;;;;;;5023062;28;20211;-72
2024/01/06 06:34:16;;;;;;;6.93;2.30;;;;;;;;;;5019523;28;20242;-74
2024/01/06 06:36:43;;;;;;;3.93;2.40;;;;;;;;;;5020140;28;20207;-74
2024/01/06 06:39:11;;;;;;;4.50;2.50;;;;;;;;;;5021689;28;20226;-74
2024/01/06 06:41:39;;;;;;;2.47;2.20;;;;;;;;;;5023137;28;20206;-72
2024/01/06 06:44:06;;;;;;;6.13;2.67;;;;;;;;;;5022325;28;20226;-73
2024/01/06 06:46:33;;;;;;;4.20;2.27;;;;;;;;;;5025197;28;20199;-74
2024/01/06 06:49:01;;;;;;;3.77;2.20;;;;;;;;;;5022946;28;20239;-71
2024/01/06 06:51:30;;;;;;;5.47;2.37;;;;;;;;;;5007116;28;20191;-74
2024/01/06 06:53:58;;;;;;;4.00;2.40;;;;;;;;;;5005350;28;20219;-73
2024/01/06 06:56:25;;;;;;;6.43;2.30;;;;;;;;;;5023962;28;20307;-73
2024/01/06 06:58:53;;;;;;;3.10;2.10;;;;;;;;;;5024297;28;20210;-74
2024/01/06 07:01:20;;;;;;;3.63;2.40;;;;;;;;;;5023110;28;20273;-71
2024/01/06 07:03:48;;;;;;;5.23;2.47;;;;;;;;;;5024822;28;20252;-73
2024/01/06 07:06:15;;;;;;;4.20;2.43;;;;;;;;;;5021545;28;20199;-74
2024/01/06 07:08:43;;;;;;;3.03;2.30;;;;;;;;;;5021457;28;20603;-71
2024/01/06 07:11:14;;;;;;;7.37;2.40;;;;;;;;;;5024329;28;20203;-71
2024/01/06 07:13:42;;;;;;;5.57;3.17;;;;;;;;;;5021425;28;20227;-73
2024/01/06 07:16:09;;;;;;;3.37;3.07;;;;;;;;;;5023320;28;20207;-73
2024/01/06 07:18:45;;;;;;;6.43;2.67;;;;;;;;;;5018863;28;20269;-74
2024/01/06 07:21:13;;;;;;;5.77;2.17;;;;;;;;;;5020296;28;20289;-71
2024/01/06 07:23:41;;;;;;;3.80;2.17;;;;;;;;;;5003259;28;20219;-74
2024/01/06 07:26:08;;;;;;;4.10;2.50;;;;;;;;;;5020976;28;20715;-72
2024/01/06 07:28:35;;;;;;;2.87;2.20;;;;;;;;;;5002484;28;20671;-74
2024/01/06 07:31:04;;;;;;;5.20;2.60;;;;;;;;;;5022186;28;20215;-72
2024/01/06 07:33:32;;;;;;;10.40;5.00;;;;;;;;;;5019964;28;20230;-73
2024/01/06 07:36:00;;;;;;;8.57;2.70;;;;;;;;;;5016146;28;20916;-74
2024/01/06 07:38:30;;;;;;;6.63;3.40;;;;;;;;;;5017200;28;20214;-74
2024/01/06 07:40:58;;;;;;;2.77;2.23;;;;;;;;;;5018536;28;20218;-73
2024/01/06 07:43:25;;;;;;;4.77;2.50;;;;;;;;;;5019199;28;20830;-73
2024/01/06 07:45:52;;;;;;;5.30;2.40;;;;;;;;;;5019752;28;20222;-71
2024/01/06 07:48:20;;;;;;;8.37;2.57;;;;;;;;;;5010048;28;20252;-69
2024/01/06 07:50:47;;;;;;;3.13;2.30;;;;;;;;;;5003321;28;20212;-72
2024/01/06 07:53:15;;;;;;;5.00;2.40;;;;;;;;;;5005114;28;20679;-72
2024/01/06 07:55:42;;;;;;;2.50;2.13;;;;;;;;;;5005862;28;20604;-73
2024/01/06 07:58:09;;;;;;;4.00;2.20;;;;;;;;;;5010994;28;20214;-72
2024/01/06 08:00:36;;;;;;;5.00;2.37;;;;;;;;;;5020723;28;20228;-72
2024/01/06 08:03:05;;;;;;;5.23;2.20;;;;;;;;;;5010575;28;20391;-73
2024/01/06 08:05:33;;;;;;;5.63;2.73;;;;;;;;;;5008111;28;20214;-72
2024/01/06 08:08:00;;;;;;;4.67;3.00;;;;;;;;;;5010957;28;20254;-69
2024/01/06 08:10:28;;;;;;;6.87;2.30;;;;;;;;;;5020162;28;20238;-68
2024/01/06 08:12:55;;;;;;;12.40;2.77;;;;;;;;;;5013924;28;20218;-67
2024/01/06 08:15:22;;;;;;;6.53;2.60;;;;;;;;;;5017352;28;20213;-70
2024/01/06 08:17:50;;;;;;;5.13;2.63;;;;;;;;;;5020922;28;20298;-69
2024/01/06 08:20:17;;;;;;;10.47;4.10;;;;;;;;;;5022778;28;20234;-69
2024/01/06 08:22:44;;;;;;;6.90;3.50;;;;;;;;;;5012797;28;20279;-67
2024/01/06 08:25:13;;;;;;;4.03;2.60;;;;;;;;;;5029368;28;20278;-67
2024/01/06 08:27:40;;;;;;;7.47;2.50;;;;;;;;;;5029306;28;20203;-68
2024/01/06 08:30:08;;;;;;;3.27;2.50;;;;;;;;;;5031759;28;20288;-68
2024/01/06 08:32:36;;;;;;;5.73;5.20;;;;;;;;;;5029463;28;20227;-68
2024/01/06 08:35:03;;;;;;;6.23;2.90;;;;;;;;;;5013192;28;20666;-69
2024/01/06 08:37:31;;;;;;;6.17;3.20;;;;;;;;;;5030726;28;20217;-68
2024/01/06 08:39:58;;;;;;;4.77;3.23;;;;;;;;;;5009712;28;20220;-69
2024/01/06 08:42:26;;;;;;;6.07;2.93;;;;;;;;;;5029785;28;20222;-70
2024/01/06 08:44:53;;;;;;;4.10;3.00;;;;;;;;;;5027266;28;20338;-70
2024/01/06 08:47:20;;;;;;;5.90;3.63;;;;;;;;;;5031308;28;20261;-69
2024/01/06 08:49:48;;;;;;;6.73;3.23;;;;;;;;;;5036269;28;20245;-68
2024/01/06 08:52:15;;;;;;;7.57;3.00;;;;;;;;;;5028166;28;20227;-70
2024/01/06 08:54:43;;;;;;;6.90;2.70;;;;;;;;;;5032525;28;20210;-68
2024/01/06 08:57:10;;;;;;;5.30;2.73;;;;;;;;;;5030117;28;20242;-67
2024/01/06 08:59:39;;;;;;;3.20;2.00;;;;;;;;;;5024794;28;20695;-68
2024/01/06 09:02:07;;;;;;;4.90;2.20;;;;;;;;;;5030409;28;20697;-68
2024/01/06 09:04:36;;;;;;;4.93;2.33;;;;;;;;;;5019391;28;20229;-68
2024/01/06 09:07:06;;;;;;;2.60;2.23;;;;;;;;;;5015822;28;20214;-67
2024/01/06 09:09:33;;;;;;;5.40;3.33;;;;;;;;;;5017139;28;20217;-69
2024/01/06 09:12:00;;;;;;;7.67;3.07;;;;;;;;;;5015332;28;20959;-69
2024/01/06 09:14:28;;;;;;;4.43;2.50;;;;;;;;;;4998259;28;20662;-69
2024/01/06 09:16:55;;;;;;;4.90;2.50;;;;;;;;;;5019655;28;20225;-69
2024/01/06 09:19:22;;;;;;;4.40;3.10;;;;;;;;;;5018550;28;20199;-70
2024/01/06 09:21:50;;;;;;;4.20;2.43;;;;;;;;;;5021773;28;20699;-69
2024/01/06 09:24:17;;;;;;;6.43;2.27;;;;;;;;;;5018141;28;20235;-68
2024/01/06 09:26:45;;;;;;;3.00;2.03;;;;;;;;;;5024091;28;20203;-67
2024/01/06 09:29:13;;;;;;;4.63;2.33;;;;;;;;;;5019087;28;20233;-69
2024/01/06 09:31:43;;;;;;;4.83;1.80;;;;;;;;;;5019561;28;20299;-68
2024/01/06 09:34:12;;;;;;;3.10;2.10;;;;;;;;;;5003397;28;20616;-68
2024/01/06 09:36:39;;;;;;;2.77;2.10;;;;;;;;;;5021191;28;20227;-69
2024/01/06 09:39:08;;;;;;;3.40;1.90;;;;;;;;;;5020747;28;20806;-69
2024/01/06 09:41:35;;;;;;;2.80;2.50;;;;;;;;;;5022972;28;20644;-68
2024/01/06 09:44:03;;;;;;;3.77;2.43;;;;;;;;;;5026627;28;20231;-69
2024/01/06 09:46:30;;;;;;;4.17;2.00;;;;;;;;;;5025340;28;20296;-68
2024/01/06 09:48:58;;;;;;;3.33;2.03;;;;;;;;;;5020288;28;20203;-69
2024/01/06 09:51:29;;;;;;;2.60;2.30;;;;;;;;;;5017139;28;20222;-69
2024/01/06 09:54:00;;;;;;;4.30;2.33;;;;;;;;;;5020207;28;21588;-69
2024/01/06 09:56:28;;;;;;;4.30;2.40;;;;;;;;;;5036955;28;20210;-67
2024/01/06 09:58:56;;;;;;;4.33;2.10;;;;;;;;;;5018222;28;20747;-67
2024/01/06 10:01:24;;;;;;;4.03;2.20;;;;;;;;;;5024039;28;20887;-70
2024/01/06 10:03:52;;;;;;;2.70;2.50;;;;;;;;;;5014577;28;20218;-72
2024/01/06 10:06:20;;;;;;;18.20;7.70;;;;;;;;;;5014966;28;20696;-73
2024/01/06 10:08:49;;;;;;;13.60;6.70;;;;;;;;;;5014573;28;20202;-74
2024/01/06 10:11:16;;;;;;;3.70;2.50;;;;;;;;;;5014848;28;20261;-75
2024/01/06 10:13:44;;;;;;;9.37;7.23;;;;;;;;;;5016922;28;20314;-71
2024/01/06 10:16:11;;;;;;;4.80;4.30;;;;;;;;;;5019947;28;20677;-71
2024/01/06 10:18:39;;;;;;;5.47;4.97;;;;;;;;;;5038073;28;20620;-71
2024/01/06 10:21:07;;;;;;;3.07;2.07;;;;;;;;;;5037074;28;20222;-72
2024/01/06 10:23:34;;;;;;;5.03;1.90;;;;;;;;;;5034432;28;20244;-71
2024/01/06 10:26:02;;;;;;;2.83;2.10;;;;;;;;;;5036046;28;20203;-69
2024/01/06 10:28:32;;;;;;;4.30;1.87;;;;;;;;;;5034319;28;20215;-72
2024/01/06 10:31:01;;;;;;;5.80;3.27;;;;;;;;;;5023099;28;20207;-70
2024/01/06 10:33:28;;;;;;;2.43;1.67;;;;;;;;;;5014942;28;20234;-70
2024/01/06 10:35:56;;;;;;;2.63;2.00;;;;;;;;;;5033158;28;20214;-71
2024/01/06 10:38:23;;;;;;;2.57;1.70;;;;;;;;;;5040345;28;20268;-71
2024/01/06 10:41:01;;;;;;;2.07;1.97;;;;;;;;;;5040836;28;20227;-72
2024/01/06 10:43:29;;;;;;;4.00;1.90;;;;;;;;;;5048454;28;20242;-71
2024/01/06 10:45:59;;;;;;;2.23;2.07;;;;;;;;;;5046452;28;20195;-71
2024/01/06 10:48:26;;;;;;;3.30;2.27;;;;;;;;;;5032805;28;20204;-73
2024/01/06 10:50:55;;;;;;;2.67;2.40;;;;;;;;;;5033208;28;20206;-72
2024/01/06 10:53:24;;;;;;;11.70;5.90;;;;;;;;;;5049771;28;20745;-71
2024/01/06 10:55:52;;;;;;;8.73;3.53;;;;;;;;;;5033029;28;20210;-72
2024/01/06 10:58:22;;;;;;;5.43;2.70;;;;;;;;;;5042886;28;20246;-71
2024/01/06 11:00:50;;;;;;;3.50;2.27;;;;;;;;;;5032119;28;20234;-71
2024/01/06 11:03:18;;;;;;;3.40;2.47;;;;;;;;;;5035135;28;20231;-71
2024/01/06 11:05:46;;;;;;;2.17;2.03;;;;;;;;;;5032948;28;20282;-71
2024/01/06 11:08:13;;;;;;;5.53;3.87;;;;;;;;;;5046975;28;20207;-72
2024/01/06 11:10:41;;;;;;;2.83;2.63;;;;;;;;;;5041983;28;20211;-70
2024/01/06 11:13:20;;;;;;;2.20;2.10;;;;;;;;;;5044076;28;20226;-72
2024/01/06 11:15:48;;;;;;;3.47;2.00;;;;;;;;;;5040944;28;20216;-72
2024/01/06 11:18:34;;;;;;;6.03;2.20;;;;;;;;;;5041063;28;20737;-71
2024/01/06 11:21:14;;;;;;;3.87;2.30;;;;;;;;;;5026418;28;20276;-70
2024/01/06 11:23:41;;;;;;;3.30;2.40;;;;;;;;;;5035283;28;20246;-69
2024/01/06 11:26:08;;;;;;;2.63;2.07;;;;;;;;;;5037940;28;20206;-69
2024/01/06 11:28:46;;;;;;;2.10;2.00;;;;;;;;;;5044280;28;20218;-71
2024/01/06 11:31:13;;;;;;;4.23;2.37;;;;;;;;;;5025048;28;20584;-70
2024/01/06 11:33:44;;;;;;;2.23;2.10;;;;;;;;;;5043425;28;20234;-73
2024/01/06 11:36:12;;;;;;;2.97;2.23;;;;;;;;;;5038140;28;20720;-70
2024/01/06 11:38:40;;;;;;;4.93;2.57;;;;;;;;;;5044124;28;20215;-72
2024/01/06 11:41:11;;;;;;;2.70;2.47;;;;;;;;;;5038745;28;20226;-72
2024/01/06 11:43:41;;;;;;;2.70;2.50;;;;;;;;;;5025602;28;20593;-72
2024/01/06 11:46:09;;;;;;;4.80;2.20;;;;;;;;;;5032097;28;20709;-70
2024/01/06 11:48:37;;;;;;;2.53;2.10;;;;;;;;;;5047631;28;20202;-69
2024/01/06 11:51:04;;;;;;;2.17;2.07;;;;;;;;;;5039725;28;20593;-71
2024/01/06 11:53:32;;;;;;;2.40;2.20;;;;;;;;;;5032583;28;20281;-72
2024/01/06 11:56:00;;;;;;;2.90;2.50;;;;;;;;;;5051679;28;20198;-71
2024/01/06 11:58:28;;;;;;;3.47;3.17;;;;;;;;;;5051870;28;20580;-71
2024/01/06 12:00:59;;;;;;;2.77;2.33;;;;;;;;;;5032319;28;20269;-71
2024/01/06 12:03:30;;;;;;;3.30;2.20;;;;;;;;;;5031586;28;20306;-72
2024/01/06 12:06:04;;;;;;;2.33;1.57;;;;;;;;;;5041882;28;20198;-71
2024/01/06 12:08:32;;;;;;;3.37;2.43;;;;;;;;;;5041249;28;20195;-70
2024/01/06 12:11:03;;;;;;;5.97;3.40;;;;;;;;;;5050002;28;20255;-71
2024/01/06 12:13:30;;;;;;;9.93;5.53;;;;;;;;;;5035654;28;20226;-72
2024/01/06 12:15:58;;;;;;;5.13;3.40;;;;;;;;;;5024124;28;20201;-71
2024/01/06 12:18:25;;;;;;;5.27;3.67;;;;;;;;;;5039067;28;20206;-71
2024/01/06 12:20:54;;;;;;;12.73;6.93;;;;;;;;;;5019662;28;20489;-71
2024/01/06 12:23:29;;;;;;;4.10;2.53;;;;;;;;;;5038653;28;20702;-72
2024/01/06 12:25:56;;;;;;;3.90;2.80;;;;;;;;;;5030886;28;20194;-68
2024/01/06 12:28:24;;;;;;;2.23;2.07;;;;;;;;;;5031039;28;20234;-70
2024/01/06 12:30:53;;;;;;;2.53;2.23;;;;;;;;;;5032586;28;20206;-71
2024/01/06 12:33:20;;;;;;;3.47;3.27;;;;;;;;;;5051318;28;20253;-71
2024/01/06 12:35:48;;;;;;;2.50;2.00;;;;;;;;;;5032915;28;20216;-73
2024/01/06 12:38:15;;;;;;;1.77;1.67;;;;;;;;;;5032701;28;20209;-70
2024/01/06 12:40:42;;;;;;;1.90;1.80;;;;;;;;;;5030589;28;20667;-71
2024/01/06 12:43:10;;;;;;;2.07;1.90;;;;;;;;;;5030538;28;20222;-72
2024/01/06 12:45:37;;;;;;;3.57;2.30;;;;;;;;;;5042441;28;20216;-72
2024/01/06 12:48:05;;;;;;;2.10;2.00;;;;;;;;;;5039998;28;20284;-72
2024/01/06 12:50:32;;;;;;;2.00;1.90;;;;;;;;;;5043720;28;20215;-72
2024/01/06 12:53:00;;;;;;;1.73;1.63;;;;;;;;;;5041498;28;20225;-71
2024/01/06 12:55:27;;;;;;;1.90;1.80;;;;;;;;;;5046408;28;20619;-72
2024/01/06 12:57:54;;;;;;;2.70;2.00;;;;;;;;;;5044008;28;20201;-72
2024/01/06 13:00:21;;;;;;;5.77;4.67;;;;;;;;;;5036770;28;20203;-69
2024/01/06 13:02:49;;;;;;;2.60;2.43;;;;;;;;;;5030354;28;20333;-73
2024/01/06 13:05:16;;;;;;;3.70;3.40;;;;;;;;;;5030457;28;20206;-71
2024/01/06 13:07:44;;;;;;;4.00;2.87;;;;;;;;;;5030786;28;20253;-71
2024/01/06 13:10:11;;;;;;;3.20;2.90;;;;;;;;;;5030117;28;20206;-71
2024/01/06 13:12:38;;;;;;;3.63;2.20;;;;;;;;;;5030205;28;20239;-72
2024/01/06 13:15:07;;;;;;;2.30;2.03;;;;;;;;;;5033875;28;20202;-72
2024/01/06 13:17:35;;;;;;;2.20;2.10;;;;;;;;;;5042323;28;20210;-72
2024/01/06 13:20:02;;;;;;;2.43;2.23;;;;;;;;;;5030593;28;20237;-71
2024/01/06 13:22:30;;;;;;;5.73;4.53;;;;;;;;;;5039602;28;20314;-72
2024/01/06 13:24:58;;;;;;;2.53;2.33;;;;;;;;;;5016326;28;20583;-72
2024/01/06 13:27:29;;;;;;;3.90;3.60;;;;;;;;;;5030712;28;20381;-72
2024/01/06 13:29:56;;;;;;;5.70;2.70;;;;;;;;;;5030071;28;20214;-71
2024/01/06 13:32:24;;;;;;;4.17;3.27;;;;;;;;;;5030561;28;20254;-72
2024/01/06 13:34:54;;;;;;;3.13;2.80;;;;;;;;;;5040078;28;20261;-71
2024/01/06 13:37:24;;;;;;;2.53;2.33;;;;;;;;;;5036899;28;20294;-72
2024/01/06 13:39:51;;;;;;;4.77;3.60;;;;;;;;;;5030831;28;20203;-72
2024/01/06 13:42:21;;;;;;;5.27;3.90;;;;;;;;;;5039436;28;20258;-71
2024/01/06 13:44:48;;;;;;;5.43;3.93;;;;;;;;;;5030159;28;20238;-70
2024/01/06 13:47:16;;;;;;;7.37;4.13;;;;;;;;;;5028666;28;20207;-73
2024/01/06 13:49:43;;;;;;;2.53;2.30;;;;;;;;;;5048273;28;20206;-71
2024/01/06 13:52:10;;;;;;;2.87;2.00;;;;;;;;;;5030095;28;20220;-71
2024/01/06 13:54:38;;;;;;;2.20;2.10;;;;;;;;;;5030313;28;20260;-72
2024/01/06 13:57:05;;;;;;;2.27;2.17;;;;;;;;;;5030454;28;20298;-70
2024/01/06 13:59:32;;;;;;;2.10;2.00;;;;;;;;;;5030526;28;20211;-71
2024/01/06 14:02:00;;;;;;;2.10;2.00;;;;;;;;;;5013238;28;20242;-69
2024/01/06 14:04:27;;;;;;;2.30;2.20;;;;;;;;;;5030604;28;20226;-71
2024/01/06 14:06:57;;;;;;;2.40;2.30;;;;;;;;;;5041055;28;20210;-71
2024/01/06 14:09:27;;;;;;;3.37;2.50;;;;;;;;;;5031394;28;20209;-69
2024/01/06 14:11:54;;;;;;;2.20;2.03;;;;;;;;;;5034013;28;20242;-71
2024/01/06 14:14:22;;;;;;;2.40;2.30;;;;;;;;;;5033857;28;20263;-72
2024/01/06 14:16:50;;;;;;;2.43;2.30;;;;;;;;;;5033756;28;20211;-72
2024/01/06 14:19:17;;;;;;;2.70;2.47;;;;;;;;;;5015669;28;20206;-70
2024/01/06 14:21:45;;;;;;;2.07;1.97;;;;;;;;;;5047232;28;20252;-70
2024/01/06 14:24:12;;;;;;;2.00;1.90;;;;;;;;;;5039449;28;20705;-71
2024/01/06 14:26:42;;;;;;;2.20;2.10;;;;;;;;;;5033890;28;20670;-71
2024/01/06 14:29:09;;;;;;;2.60;2.10;;;;;;;;;;5045385;28;20213;-72
2024/01/06 14:31:36;;;;;;;3.03;2.80;;;;;;;;;;5023969;28;20257;-73
2024/01/06 14:34:04;;;;;;;2.30;2.20;;;;;;;;;;5033848;28;20831;-72
2024/01/06 14:36:32;;;;;;;2.13;1.90;;;;;;;;;;5031752;28;20206;-69
2024/01/06 14:39:00;;;;;;;2.03;1.90;;;;;;;;;;5043577;28;20256;-71
2024/01/06 14:41:27;;;;;;;2.03;1.93;;;;;;;;;;5048283;28;20232;-71
2024/01/06 14:43:55;;;;;;;2.43;2.23;;;;;;;;;;5042508;28;20725;-72